Time;durP1;ratioP1;P1;durP2;ratioP2;P2;SDS_P1;SDS_P2;PMS_P1;PMS_P2;Temp;Humidity;BMP_temperature;BMP_pressure;BME280_temperature;BME280_humidity;BME280_pressure;Samples;Min_cycle;Max_cycle;Signal;HPM_P1;HPM_P2
2024/03/06 00:01:01;;;;;;;14.33;7.67;;;;;8.10;96658.00;;;;5010724;28;20739;-84
2024/03/06 00:03:50;;;;;;;11.03;7.47;;;;;8.00;96658.00;;;;5009787;28;20237;-84
2024/03/06 00:06:39;;;;;;;11.77;7.07;;;;;7.80;96666.00;;;;5004660;28;20206;-84
2024/03/06 00:09:28;;;;;;;14.00;6.77;;;;;7.80;96665.00;;;;5009255;28;20221;-84
2024/03/06 00:12:18;;;;;;;112.63;102.93;;;;;7.60;96674.00;;;;5001558;28;20407;-85
2024/03/06 00:15:08;;;;;;;31.37;17.93;;;;;7.70;96671.00;;;;5001454;28;20217;-85
2024/03/06 00:17:59;;;;;;;14.10;8.13;;;;;7.90;96678.00;;;;5004306;28;20215;-86
2024/03/06 00:20:48;;;;;;;8.13;4.67;;;;;8.10;96676.00;;;;5000771;28;20310;-84
2024/03/06 00:23:38;;;;;;;8.57;4.90;;;;;8.20;96675.00;;;;4998375;28;20226;-85
2024/03/06 00:26:27;;;;;;;12.93;6.37;;;;;8.30;96685.00;;;;5001443;28;20217;-84
2024/03/06 00:29:16;;;;;;;26.97;10.33;;;;;7.80;96686.00;;;;5001349;28;20210;-86
2024/03/06 00:32:06;;;;;;;22.47;12.50;;;;;7.70;96687.00;;;;4999165;28;20219;-86
2024/03/06 00:34:56;;;;;;;18.70;10.53;;;;;8.10;96680.00;;;;4998446;28;20210;-84
2024/03/06 00:37:45;;;;;;;17.73;8.40;;;;;8.20;96688.00;;;;4995472;28;20221;-86
2024/03/06 00:40:34;;;;;;;14.43;6.53;;;;;8.20;96681.00;;;;4993186;28;20202;-86
2024/03/06 00:43:24;;;;;;;12.67;6.20;;;;;8.00;96682.00;;;;4995685;28;20273;-86
2024/03/06 00:46:13;;;;;;;21.57;7.13;;;;;7.90;96679.00;;;;5010524;28;20421;-83
2024/03/06 00:49:02;;;;;;;13.97;5.77;;;;;8.00;96677.00;;;;5008920;28;20205;-83
2024/03/06 00:51:53;;;;;;;13.07;5.93;;;;;8.10;96688.00;;;;5008065;28;20209;-82
2024/03/06 00:54:42;;;;;;;15.50;6.17;;;;;8.10;96683.00;;;;5005981;28;20230;-85
2024/03/06 00:57:31;;;;;;;14.93;5.57;;;;;7.80;96681.00;;;;5008647;28;20226;-84
2024/03/06 01:00:22;;;;;;;28.27;9.97;;;;;7.80;96685.00;;;;5008808;28;20215;-84
2024/03/06 01:03:11;;;;;;;23.73;8.80;;;;;7.90;96679.00;;;;5007886;28;20227;-84
2024/03/06 01:06:00;;;;;;;14.80;6.30;;;;;7.90;96682.00;;;;5008461;28;20210;-84
2024/03/06 01:08:51;;;;;;;16.87;7.67;;;;;7.80;96676.00;;;;5008709;28;20202;-84
2024/03/06 01:11:40;;;;;;;12.43;6.43;;;;;8.00;96671.00;;;;5005856;28;20238;-84
2024/03/06 01:14:30;;;;;;;9.47;6.63;;;;;7.90;96673.00;;;;5009181;28;20230;-84
2024/03/06 01:17:20;;;;;;;26.83;10.37;;;;;7.80;96687.00;;;;5008497;28;20664;-84
2024/03/06 01:20:10;;;;;;;30.67;12.23;;;;;7.60;96676.00;;;;5007587;28;20217;-85
2024/03/06 01:22:59;;;;;;;13.63;6.43;;;;;8.00;96677.00;;;;5009182;28;20230;-84
2024/03/06 01:25:50;;;;;;;14.17;6.13;;;;;8.00;96682.00;;;;5007098;28;20572;-83
2024/03/06 01:28:39;;;;;;;13.53;5.90;;;;;7.80;96679.00;;;;5009319;28;20214;-84
2024/03/06 01:31:28;;;;;;;13.67;5.47;;;;;7.60;96678.00;;;;5007716;28;20289;-84
2024/03/06 01:34:18;;;;;;;19.10;6.53;;;;;7.80;96681.00;;;;5000054;28;20218;-84
2024/03/06 01:37:08;;;;;;;16.37;5.80;;;;;8.00;96677.00;;;;5008284;28;20215;-84
2024/03/06 01:39:57;;;;;;;19.40;6.63;;;;;7.80;96671.00;;;;5007197;28;20206;-83
2024/03/06 01:42:49;;;;;;;12.10;4.57;;;;;7.70;96682.00;;;;5005567;28;20619;-84
2024/03/06 01:45:39;;;;;;;10.47;4.03;;;;;7.50;96680.00;;;;5002589;28;20207;-84
2024/03/06 01:48:31;;;;;;;13.20;4.63;;;;;7.40;96677.00;;;;5007337;28;20198;-84
2024/03/06 01:51:20;;;;;;;23.03;7.07;;;;;7.60;96681.00;;;;5008002;28;20222;-84
2024/03/06 01:54:09;;;;;;;22.63;7.70;;;;;7.60;96689.00;;;;5002835;28;20235;-83
2024/03/06 01:57:00;;;;;;;14.77;5.27;;;;;7.60;96673.00;;;;4998911;28;20298;-84
2024/03/06 01:59:50;;;;;;;18.23;6.07;;;;;7.50;96664.00;;;;5001427;28;20207;-83
2024/03/06 02:02:40;;;;;;;12.77;4.67;;;;;7.60;96679.00;;;;4997335;28;20525;-84
2024/03/06 02:05:31;;;;;;;13.57;5.13;;;;;7.30;96663.00;;;;4989358;28;20211;-85
2024/03/06 02:08:20;;;;;;;22.03;7.13;;;;;6.70;96658.00;;;;4989341;28;20215;-84
2024/03/06 02:11:09;;;;;;;24.00;7.70;;;;;6.60;96656.00;;;;4989323;28;20226;-86
2024/03/06 02:13:58;;;;;;;8.20;3.47;;;;;6.50;96652.00;;;;4998364;28;20237;-86
2024/03/06 02:16:49;;;;;;;10.87;4.17;;;;;6.40;96655.00;;;;4996313;28;20214;-87
2024/03/06 02:19:41;;;;;;;12.05;4.50;;;;;6.80;96657.00;;;;4994931;28;20224;-86
2024/03/06 02:22:32;;;;;;;7.20;3.67;;;;;7.30;96662.00;;;;4996878;28;20242;-86
2024/03/06 02:25:21;;;;;;;22.70;7.90;;;;;7.40;96650.00;;;;4997281;28;20213;-87
2024/03/06 02:28:10;;;;;;;21.60;7.57;;;;;7.30;96656.00;;;;4999708;28;20206;-86
2024/03/06 02:30:59;;;;;;;13.33;5.10;;;;;7.20;96643.00;;;;4995331;28;20218;-87
2024/03/06 02:33:50;;;;;;;15.70;5.73;;;;;7.00;96635.00;;;;4991255;28;20229;-86
2024/03/06 02:36:39;;;;;;;9.23;4.07;;;;;7.40;96647.00;;;;5000789;28;20204;-84
2024/03/06 02:39:29;;;;;;;8.67;3.70;;;;;7.30;96643.00;;;;5006240;28;20228;-85
2024/03/06 02:42:18;;;;;;;23.60;7.87;;;;;7.10;96640.00;;;;5007063;28;20643;-85
2024/03/06 02:45:08;;;;;;;24.57;8.43;;;;;7.00;96630.00;;;;5005673;28;20198;-85
2024/03/06 02:47:58;;;;;;;13.63;4.73;;;;;7.10;96638.00;;;;5005090;28;20213;-84
2024/03/06 02:50:47;;;;;;;12.53;5.13;;;;;7.10;96635.00;;;;5004627;28;20209;-84
2024/03/06 02:53:36;;;;;;;11.63;5.10;;;;;6.70;96642.00;;;;5005500;28;20233;-85
2024/03/06 02:56:26;;;;;;;19.70;6.93;;;;;5.90;96636.00;;;;5008118;28;20199;-85
2024/03/06 02:59:16;;;;;;;26.47;8.73;;;;;6.10;96645.00;;;;5007584;28;20226;-85
2024/03/06 03:02:05;;;;;;;10.07;4.30;;;;;6.10;96637.00;;;;5012693;28;20228;-83
2024/03/06 03:04:54;;;;;;;19.07;6.53;;;;;6.00;96633.00;;;;5013332;28;20213;-84
2024/03/06 03:07:43;;;;;;;15.07;5.70;;;;;6.00;96636.00;;;;5011944;28;20553;-84
2024/03/06 03:10:34;;;;;;;8.80;4.60;;;;;6.10;96639.00;;;;5011665;28;20198;-86
2024/03/06 03:13:24;;;;;;;25.10;8.70;;;;;6.20;96643.00;;;;5012777;28;20226;-84
2024/03/06 03:16:18;;;;;;;21.40;7.70;;;;;6.40;96635.00;;;;5011781;28;20445;-84
2024/03/06 03:19:08;;;;;;;13.43;5.60;;;;;6.50;96634.00;;;;5010868;28;20226;-84
2024/03/06 03:21:57;;;;;;;12.57;6.00;;;;;6.40;96646.00;;;;5012067;28;20206;-84
2024/03/06 03:24:47;;;;;;;11.27;5.73;;;;;6.60;96650.00;;;;5005617;28;20227;-83
2024/03/06 03:27:37;;;;;;;12.33;6.03;;;;;7.00;96644.00;;;;5010810;28;21271;-84
2024/03/06 03:30:27;;;;;;;18.73;6.73;;;;;6.80;96636.00;;;;5010319;28;21907;-85
2024/03/06 03:33:17;;;;;;;22.97;9.90;;;;;6.70;96642.00;;;;5012252;28;20222;-84
2024/03/06 03:36:07;;;;;;;9.70;6.83;;;;;6.80;96632.00;;;;5011423;28;20213;-85
2024/03/06 03:38:56;;;;;;;21.03;10.00;;;;;6.60;96636.00;;;;5008605;28;20242;-84
2024/03/06 03:41:46;;;;;;;16.80;14.90;;;;;6.30;96639.00;;;;5009563;28;20198;-85
2024/03/06 03:44:35;;;;;;;14.53;13.10;;;;;6.20;96646.00;;;;5009836;28;20234;-85
2024/03/06 03:47:26;;;;;;;29.23;14.80;;;;;6.40;96643.00;;;;5013868;28;20210;-85
2024/03/06 03:50:15;;;;;;;34.97;14.40;;;;;6.40;96650.00;;;;5013209;28;20206;-84
2024/03/06 03:53:04;;;;;;;9.80;6.30;;;;;6.60;96638.00;;;;5012899;28;20220;-84
2024/03/06 03:55:53;;;;;;;12.50;7.17;;;;;6.80;96649.00;;;;5007083;28;20213;-85
2024/03/06 03:58:43;;;;;;;17.43;9.40;;;;;6.50;96635.00;;;;5001885;28;20233;-86
2024/03/06 04:01:32;;;;;;;15.90;8.80;;;;;6.40;96644.00;;;;5004063;28;20217;-86
2024/03/06 04:04:23;;;;;;;24.17;11.47;;;;;6.50;96641.00;;;;5002182;28;20222;-86
2024/03/06 04:07:12;;;;;;;27.07;11.80;;;;;6.50;96641.00;;;;4999269;28;20218;-85
2024/03/06 04:10:01;;;;;;;17.27;8.53;;;;;6.80;96642.00;;;;5001966;28;20191;-86
2024/03/06 04:12:50;;;;;;;10.67;6.30;;;;;6.80;96641.00;;;;4997366;28;20238;-85
2024/03/06 04:15:39;;;;;;;13.17;7.93;;;;;6.90;96643.00;;;;4994364;28;20684;-86
2024/03/06 04:18:29;;;;;;;16.73;6.83;;;;;6.80;96640.00;;;;4995951;28;20696;-86
2024/03/06 04:21:19;;;;;;;24.67;9.60;;;;;6.60;96650.00;;;;4996587;28;20217;-86
2024/03/06 04:24:08;;;;;;;14.97;6.83;;;;;6.00;96633.00;;;;4996127;28;20230;-86
2024/03/06 04:26:57;;;;;;;14.90;5.20;;;;;6.20;96644.00;;;;5008216;28;20202;-84
2024/03/06 04:29:47;;;;;;;9.70;3.80;;;;;6.30;96642.00;;;;5008599;28;20202;-85
2024/03/06 04:32:36;;;;;;;11.93;4.53;;;;;6.70;96646.00;;;;5008587;28;20209;-85
2024/03/06 04:35:25;;;;;;;24.80;8.37;;;;;6.70;96652.00;;;;5009084;28;20214;-85
2024/03/06 04:38:16;;;;;;;23.77;8.13;;;;;6.80;96652.00;;;;5008576;28;20211;-84
2024/03/06 04:41:07;;;;;;;11.57;5.57;;;;;6.80;96649.00;;;;5007563;28;20245;-84
2024/03/06 04:43:58;;;;;;;12.73;7.07;;;;;6.90;96660.00;;;;5004069;28;20226;-84
2024/03/06 04:46:50;;;;;;;13.07;8.17;;;;;6.60;96653.00;;;;5006851;28;20219;-84
2024/03/06 04:49:39;;;;;;;17.10;8.97;;;;;6.70;96660.00;;;;5005348;28;20632;-86
2024/03/06 04:52:28;;;;;;;11.63;7.50;;;;;6.60;96657.00;;;;5007341;28;20215;-83
2024/03/06 04:55:22;;;;;;;29.97;12.73;;;;;6.60;96657.00;;;;5008621;28;20628;-84
2024/03/06 04:58:11;;;;;;;23.03;10.80;;;;;6.60;96661.00;;;;4998729;28;20206;-84
2024/03/06 05:01:00;;;;;;;27.53;11.97;;;;;6.40;96673.00;;;;5009100;28;20222;-85
2024/03/06 05:03:50;;;;;;;15.00;9.00;;;;;6.30;96668.00;;;;5012853;28;20231;-85
2024/03/06 05:06:57;;;;;;;18.23;9.40;;;;;6.20;96670.00;;;;5002207;28;20209;-85
2024/03/06 05:10:04;;;;;;;18.47;9.93;;;;;6.40;96678.00;;;;5001684;28;20347;-83
2024/03/06 05:13:12;;;;;;;245.83;96.53;;;;;6.70;96674.00;;;;4904479;28;20724;-85
2024/03/06 05:16:19;;;;;;;132.00;54.30;;;;;6.80;96676.00;;;;4892150;28;20219;-88
2024/03/06 05:19:31;;;;;;;245.67;97.17;;;;;6.90;96681.00;;;;4900211;28;20796;-85
2024/03/06 05:22:38;;;;;;;95.60;40.63;;;;;7.20;96681.00;;;;4885053;28;20253;-87
2024/03/06 05:25:44;;;;;;;15.43;10.53;;;;;7.10;96682.00;;;;4925686;28;20598;-85
2024/03/06 05:28:53;;;;;;;21.40;11.83;;;;;7.50;96680.00;;;;4976017;28;20222;-87
2024/03/06 05:31:59;;;;;;;16.23;10.53;;;;;7.60;96676.00;;;;4984809;28;20281;-86
2024/03/06 05:35:09;;;;;;;22.37;10.73;;;;;7.50;96677.00;;;;4991258;28;20206;-86
2024/03/06 05:38:16;;;;;;;247.53;102.10;;;;;7.40;96686.00;;;;4978422;28;20203;-87
2024/03/06 05:41:22;;;;;;;264.13;93.07;;;;;7.10;96682.00;;;;4890062;28;20201;-86
2024/03/06 05:44:31;;;;;;;165.77;52.80;;;;;6.80;96683.00;;;;4878501;28;20234;-89
2024/03/06 05:47:38;;;;;;;273.77;96.20;;;;;6.80;96687.00;;;;4907279;28;20465;-86
2024/03/06 05:50:45;;;;;;;226.23;91.90;;;;;6.60;96687.00;;;;4889823;28;20210;-87
2024/03/06 05:53:52;;;;;;;28.57;11.27;;;;;6.90;96689.00;;;;4915795;28;20640;-90
2024/03/06 05:56:59;;;;;;;18.83;8.93;;;;;7.10;96692.00;;;;4954537;28;20198;-86
2024/03/06 06:00:11;;;;;;;14.73;7.57;;;;;7.30;96693.00;;;;4981430;28;20226;-87
2024/03/06 06:03:00;;;;;;;13.17;7.50;;;;;7.40;96691.00;;;;4987757;28;20230;-87
2024/03/06 06:05:49;;;;;;;26.57;11.17;;;;;7.30;96692.00;;;;4967937;28;20221;-86
2024/03/06 06:08:39;;;;;;;14.37;7.80;;;;;7.10;96696.00;;;;4978919;28;20207;-86
2024/03/06 06:11:28;;;;;;;30.07;10.90;;;;;6.50;96686.00;;;;4984301;28;20237;-86
2024/03/06 06:14:17;;;;;;;24.70;9.53;;;;;6.80;96696.00;;;;4986286;28;20708;-86
2024/03/06 06:17:08;;;;;;;15.87;6.17;;;;;6.90;96706.00;;;;4985232;28;20210;-86
2024/03/06 06:19:57;;;;;;;20.83;7.60;;;;;7.10;96703.00;;;;4985996;28;20230;-86
2024/03/06 06:22:46;;;;;;;11.60;4.37;;;;;7.40;96715.00;;;;4983858;28;20231;-89
2024/03/06 06:25:36;;;;;;;9.97;4.13;;;;;7.30;96702.00;;;;4985056;28;20604;-86
2024/03/06 06:28:25;;;;;;;25.27;7.80;;;;;7.30;96703.00;;;;4985963;28;20219;-86
2024/03/06 06:31:14;;;;;;;19.37;7.17;;;;;7.30;96704.00;;;;4980911;28;20203;-87
2024/03/06 06:34:06;;;;;;;18.33;6.47;;;;;7.30;96710.00;;;;4980730;28;20866;-87
2024/03/06 06:36:55;;;;;;;12.47;4.93;;;;;7.60;96706.00;;;;4980680;28;20207;-88
2024/03/06 06:39:44;;;;;;;18.07;6.33;;;;;7.80;96710.00;;;;4986892;28;20219;-88
2024/03/06 06:42:34;;;;;;;9.83;4.13;;;;;7.80;96712.00;;;;4987106;28;20202;-86
2024/03/06 06:45:23;;;;;;;29.60;9.87;;;;;7.60;96713.00;;;;4983094;28;20210;-87
2024/03/06 06:48:12;;;;;;;30.20;9.73;;;;;7.50;96711.00;;;;4981747;28;20564;-86
2024/03/06 06:51:03;;;;;;;17.03;5.97;;;;;7.50;96706.00;;;;4980248;28;20206;-85
2024/03/06 06:53:52;;;;;;;13.30;5.30;;;;;7.70;96714.00;;;;4979646;28;20227;-85
2024/03/06 06:56:43;;;;;;;21.83;7.07;;;;;7.90;96720.00;;;;4981213;28;20209;-87
2024/03/06 06:59:32;;;;;;;118.28;107.43;;;;;7.70;96708.00;;;;4983978;28;20410;-85
2024/03/06 07:02:21;;;;;;;28.43;12.90;;;;;8.20;96714.00;;;;4986758;28;20206;-86
2024/03/06 07:05:12;;;;;;;23.80;8.83;;;;;8.50;96713.00;;;;4985340;28;20724;-87
2024/03/06 07:08:02;;;;;;;17.73;6.97;;;;;8.50;96711.00;;;;4986776;28;20261;-88
2024/03/06 07:10:53;;;;;;;11.33;4.63;;;;;8.60;96716.00;;;;4984821;28;20199;-86
2024/03/06 07:13:43;;;;;;;10.30;4.80;;;;;8.60;96723.00;;;;4978260;28;20230;-85
2024/03/06 07:16:32;;;;;;;16.53;6.73;;;;;8.60;96715.00;;;;4981470;28;20221;-85
2024/03/06 07:19:21;;;;;;;30.73;10.73;;;;;8.70;96713.00;;;;4987761;28;20210;-87
2024/03/06 07:22:10;;;;;;;17.40;6.90;;;;;8.70;96712.00;;;;4988110;28;20688;-86
2024/03/06 07:25:01;;;;;;;21.90;7.90;;;;;8.90;96717.00;;;;4979719;28;20208;-86
2024/03/06 07:27:50;;;;;;;9.57;5.10;;;;;8.90;96732.00;;;;4985403;28;20688;-86
2024/03/06 07:30:40;;;;;;;12.70;6.03;;;;;9.20;96731.00;;;;4984041;28;20234;-87
2024/03/06 07:33:29;;;;;;;24.30;8.60;;;;;9.20;96726.00;;;;4986852;28;20704;-85
2024/03/06 07:36:18;;;;;;;16.77;6.53;;;;;9.40;96731.00;;;;4984993;28;20218;-87
2024/03/06 07:39:08;;;;;;;15.03;7.30;;;;;9.50;96733.00;;;;4987600;28;20202;-86
2024/03/06 07:41:59;;;;;;;11.67;5.83;;;;;9.50;96726.00;;;;4985396;28;20233;-87
2024/03/06 07:44:48;;;;;;;16.67;7.67;;;;;9.80;96733.00;;;;4979496;28;20227;-87
2024/03/06 07:47:38;;;;;;;16.20;7.40;;;;;9.90;96731.00;;;;4989610;28;20214;-85
2024/03/06 07:50:30;;;;;;;28.97;11.03;;;;;9.70;96731.00;;;;4983485;28;20203;-85
2024/03/06 07:53:19;;;;;;;27.50;10.30;;;;;9.40;96732.00;;;;4990604;28;20600;-85
2024/03/06 07:56:12;;;;;;;16.80;8.27;;;;;9.50;96740.00;;;;4985016;28;20679;-86
2024/03/06 07:59:04;;;;;;;15.40;8.67;;;;;9.90;96742.00;;;;4987579;28;20313;-86
2024/03/06 08:01:55;;;;;;;12.83;7.27;;;;;10.00;96747.00;;;;4990565;28;20281;-86
2024/03/06 08:04:44;;;;;;;13.00;8.57;;;;;10.30;96740.00;;;;4991552;28;20647;-88
2024/03/06 08:07:34;;;;;;;19.60;9.10;;;;;10.30;96749.00;;;;4989612;28;20213;-86
2024/03/06 08:10:23;;;;;;;33.17;12.73;;;;;10.50;96747.00;;;;4989357;28;20203;-85
2024/03/06 08:13:12;;;;;;;18.50;9.43;;;;;10.60;96753.00;;;;4989628;28;20242;-85
2024/03/06 08:16:03;;;;;;;16.20;8.57;;;;;10.50;96747.00;;;;4980127;28;20206;-87
2024/03/06 08:18:53;;;;;;;8.77;6.03;;;;;10.70;96755.00;;;;4980052;28;20448;-86
2024/03/06 08:21:42;;;;;;;13.33;6.77;;;;;10.70;96746.00;;;;4990482;28;20233;-86
2024/03/06 08:24:31;;;;;;;16.43;8.50;;;;;10.70;96754.00;;;;4987373;28;20230;-86
2024/03/06 08:27:20;;;;;;;29.77;11.97;;;;;10.80;96759.00;;;;4985378;28;20217;-86
2024/03/06 08:30:10;;;;;;;23.50;10.07;;;;;10.90;96756.00;;;;4989400;28;20664;-85
2024/03/06 08:33:01;;;;;;;14.53;8.83;;;;;10.90;96761.00;;;;4987039;28;20571;-84
2024/03/06 08:35:50;;;;;;;12.40;7.23;;;;;11.00;96762.00;;;;4985608;28;20245;-84
2024/03/06 08:38:40;;;;;;;21.03;9.00;;;;;11.10;96777.00;;;;4984609;28;20206;-85
2024/03/06 08:41:29;;;;;;;29.13;12.77;;;;;11.20;96770.00;;;;4988496;28;20227;-85
2024/03/06 08:44:19;;;;;;;26.10;10.20;;;;;11.30;96772.00;;;;4988158;28;20727;-85
2024/03/06 08:47:09;;;;;;;16.37;9.03;;;;;11.40;96772.00;;;;4986506;28;20557;-85
2024/03/06 08:49:59;;;;;;;19.40;8.40;;;;;11.30;96775.00;;;;4983978;28;20256;-85
2024/03/06 08:52:48;;;;;;;15.20;7.90;;;;;11.50;96774.00;;;;4981896;28;20214;-85
2024/03/06 08:55:38;;;;;;;18.07;9.00;;;;;11.40;96778.00;;;;4990778;28;20209;-85
2024/03/06 08:58:27;;;;;;;13.10;6.47;;;;;11.30;96778.00;;;;4974144;28;20207;-86
2024/03/06 09:01:16;;;;;;;17.63;8.67;;;;;11.30;96779.00;;;;4980739;28;20249;-84
2024/03/06 09:04:07;;;;;;;18.17;7.60;;;;;11.30;96784.00;;;;4986236;28;20326;-85
2024/03/06 09:06:57;;;;;;;13.90;6.90;;;;;11.40;96778.00;;;;4986176;28;20642;-85
2024/03/06 09:09:47;;;;;;;10.00;4.43;;;;;11.50;96778.00;;;;4984929;28;20199;-86
2024/03/06 09:12:36;;;;;;;14.20;6.07;;;;;11.30;96789.00;;;;4985063;28;20601;-85
2024/03/06 09:15:25;;;;;;;28.60;9.10;;;;;11.40;96794.00;;;;4984654;28;20203;-85
2024/03/06 09:18:16;;;;;;;20.00;6.43;;;;;11.50;96790.00;;;;4984495;28;20214;-85
2024/03/06 09:21:05;;;;;;;10.93;4.00;;;;;11.40;96789.00;;;;4982327;28;20226;-85
2024/03/06 09:23:56;;;;;;;12.20;4.50;;;;;11.50;96787.00;;;;4987206;28;20218;-85
2024/03/06 09:26:45;;;;;;;18.27;6.57;;;;;11.50;96789.00;;;;4978083;28;20206;-85
2024/03/06 09:29:34;;;;;;;12.27;4.50;;;;;11.30;96789.00;;;;4987504;28;20221;-84
2024/03/06 09:32:26;;;;;;;26.70;8.53;;;;;11.30;96789.00;;;;4982960;28;20685;-84
2024/03/06 09:35:17;;;;;;;24.73;8.17;;;;;11.40;96785.00;;;;4986216;28;20666;-86
2024/03/06 09:38:06;;;;;;;15.90;5.27;;;;;11.30;96793.00;;;;4989847;28;20225;-85
2024/03/06 09:40:59;;;;;;;11.20;4.23;;;;;11.00;96778.00;;;;4983886;28;20199;-85
2024/03/06 09:43:48;;;;;;;12.47;4.47;;;;;11.00;96786.00;;;;4975542;28;20234;-87
2024/03/06 09:46:37;;;;;;;10.37;4.00;;;;;11.00;96779.00;;;;4984287;28;20586;-86
2024/03/06 09:49:27;;;;;;;26.17;8.97;;;;;11.40;96789.00;;;;4991776;28;20203;-87
2024/03/06 09:52:16;;;;;;;17.50;6.57;;;;;11.50;96793.00;;;;4990467;28;20216;-87
2024/03/06 09:55:09;;;;;;;17.63;7.13;;;;;11.50;96790.00;;;;4987662;28;20218;-86
2024/03/06 09:58:02;;;;;;;12.13;4.90;;;;;11.60;96794.00;;;;4983312;28;20774;-86
2024/03/06 10:00:52;;;;;;;7.53;4.37;;;;;11.70;96799.00;;;;4981296;28;20218;-87
2024/03/06 10:03:41;;;;;;;11.50;5.73;;;;;11.70;96798.00;;;;4985152;28;20650;-85
2024/03/06 10:06:32;;;;;;;24.63;9.70;;;;;11.80;96793.00;;;;4980354;28;20237;-86
2024/03/06 10:09:21;;;;;;;31.90;12.33;;;;;11.80;96787.00;;;;4984371;28;20203;-86
2024/03/06 10:12:13;;;;;;;16.13;7.53;;;;;11.80;96786.00;;;;4984059;28;20688;-86
2024/03/06 10:15:05;;;;;;;31.97;11.43;;;;;11.90;96784.00;;;;4984983;28;20210;-85
2024/03/06 10:17:54;;;;;;;14.47;6.40;;;;;11.80;96777.00;;;;4986254;28;20210;-86
2024/03/06 10:20:44;;;;;;;7.60;4.50;;;;;11.80;96786.00;;;;4981954;28;20214;-86
2024/03/06 10:23:34;;;;;;;10.67;5.53;;;;;11.60;96790.00;;;;4982949;28;20230;-85
2024/03/06 10:26:25;;;;;;;31.97;11.80;;;;;11.50;96786.00;;;;4983261;28;20214;-86
2024/03/06 10:29:18;;;;;;;16.27;8.03;;;;;11.60;96783.00;;;;4983759;28;20206;-86
2024/03/06 10:32:10;;;;;;;19.30;8.20;;;;;11.90;96785.00;;;;4987210;28;20285;-86
2024/03/06 10:34:59;;;;;;;23.87;9.63;;;;;12.10;96788.00;;;;4983962;28;20214;-86
2024/03/06 10:37:48;;;;;;;15.63;8.17;;;;;12.40;96783.00;;;;4984599;28;20210;-87
2024/03/06 10:40:39;;;;;;;11.70;7.10;;;;;12.60;96782.00;;;;4984344;28;20206;-86
2024/03/06 10:43:28;;;;;;;30.20;12.40;;;;;12.60;96778.00;;;;4981816;28;20624;-86
2024/03/06 10:46:21;;;;;;;28.07;13.30;;;;;12.70;96779.00;;;;4986346;28;20318;-86
2024/03/06 10:49:14;;;;;;;22.57;12.03;;;;;12.60;96781.00;;;;4985637;28;20218;-86
2024/03/06 10:52:06;;;;;;;15.77;10.03;;;;;12.70;96781.00;;;;4984242;28;20698;-86
2024/03/06 10:54:58;;;;;;;20.43;11.07;;;;;13.10;96782.00;;;;4989902;28;20194;-86
2024/03/06 10:57:48;;;;;;;11.47;6.50;;;;;13.30;96787.00;;;;4986094;28;20210;-88
2024/03/06 11:00:39;;;;;;;13.83;8.60;;;;;13.30;96782.00;;;;4984944;28;20432;-87
2024/03/06 11:03:30;;;;;;;27.03;11.03;;;;;13.40;96778.00;;;;4983559;28;20288;-86
2024/03/06 11:06:21;;;;;;;31.57;13.50;;;;;13.40;96779.00;;;;4982204;28;20225;-86
2024/03/06 11:09:15;;;;;;;18.37;8.03;;;;;13.50;96780.00;;;;4991178;28;20214;-86
2024/03/06 11:12:06;;;;;;;14.30;8.53;;;;;13.70;96783.00;;;;4985613;28;20214;-87
2024/03/06 11:14:57;;;;;;;16.47;8.80;;;;;13.80;96772.00;;;;4983778;28;20211;-86
2024/03/06 11:17:46;;;;;;;17.97;9.00;;;;;13.80;96774.00;;;;4983816;28;20206;-86
2024/03/06 11:20:36;;;;;;;14.40;8.63;;;;;13.80;96769.00;;;;4982751;28;20207;-88
2024/03/06 11:23:27;;;;;;;24.57;10.53;;;;;13.70;96772.00;;;;4985528;23;20655;-69
2024/03/06 11:26:19;;;;;;;28.60;12.30;;;;;13.80;96761.00;;;;4964139;28;20211;-69
2024/03/06 11:29:09;;;;;;;16.47;8.67;;;;;14.00;96761.00;;;;4967170;28;20556;-70
2024/03/06 11:32:09;;;;;;;19.50;10.23;;;;;14.10;96767.00;;;;4967769;28;20204;-69
2024/03/06 11:35:00;;;;;;;19.30;9.73;;;;;14.20;96765.00;;;;4965333;28;20235;-69
2024/03/06 11:37:52;;;;;;;17.87;9.80;;;;;14.30;96749.00;;;;4968905;28;20211;-69
2024/03/06 11:40:46;;;;;;;12.80;8.97;;;;;14.40;96751.00;;;;4968845;28;20242;-68
2024/03/06 11:43:42;;;;;;;13.03;7.23;;;;;14.20;96745.00;;;;4968051;28;20246;-69
2024/03/06 11:46:44;;;;;;;21.70;9.73;;;;;14.00;96749.00;;;;4952327;28;20953;-69
2024/03/06 11:49:34;;;;;;;21.33;8.00;;;;;14.00;96734.00;;;;4968988;28;20203;-69
2024/03/06 11:52:24;;;;;;;28.43;12.10;;;;;14.40;96734.00;;;;4968261;28;20599;-69
2024/03/06 11:55:13;;;;;;;24.33;10.03;;;;;14.50;96739.00;;;;4966924;28;20231;-69
2024/03/06 11:58:04;;;;;;;15.70;8.10;;;;;14.50;96726.00;;;;4966957;28;20677;-68
2024/03/06 12:00:54;;;;;;;14.80;9.50;;;;;14.70;96743.00;;;;4968280;28;20207;-70
2024/03/06 12:03:44;;;;;;;17.30;8.80;;;;;14.70;96731.00;;;;4971768;28;20234;-70
2024/03/06 12:06:34;;;;;;;22.27;10.03;;;;;14.40;96727.00;;;;4963378;28;20203;-70
2024/03/06 12:09:23;;;;;;;26.03;11.10;;;;;14.60;96727.00;;;;4964112;28;20210;-69
2024/03/06 12:12:13;;;;;;;21.17;10.13;;;;;14.70;96719.00;;;;4959921;28;20203;-69
2024/03/06 12:15:08;;;;;;;26.43;11.17;;;;;14.80;96723.00;;;;4969784;28;20932;-68
2024/03/06 12:17:57;;;;;;;21.80;9.97;;;;;14.90;96724.00;;;;4965292;28;20914;-69
2024/03/06 12:20:46;;;;;;;12.00;7.77;;;;;15.10;96717.00;;;;4960545;28;20226;-69
2024/03/06 12:23:35;;;;;;;14.07;8.13;;;;;15.10;96714.00;;;;4960575;28;20231;-70
2024/03/06 12:26:25;;;;;;;29.67;13.30;;;;;15.20;96711.00;;;;4953687;28;20202;-68
2024/03/06 12:29:17;;;;;;;17.57;11.00;;;;;15.40;96707.00;;;;4967729;28;20211;-69
2024/03/06 12:32:18;;;;;;;16.27;11.70;;;;;16.10;96709.00;;;;4967906;28;20214;-69
2024/03/06 12:35:08;;;;;;;30.63;17.77;;;;;15.90;96708.00;;;;4955313;28;20231;-68
2024/03/06 12:37:57;;;;;;;15.37;11.90;;;;;15.60;96701.00;;;;4967192;28;20211;-69
2024/03/06 12:40:47;;;;;;;17.80;16.20;;;;;16.00;96707.00;;;;4961178;28;20207;-68
2024/03/06 12:43:36;;;;;;;20.83;18.90;;;;;16.30;96699.00;;;;4956848;28;20458;-68
2024/03/06 12:46:26;;;;;;;28.53;25.87;;;;;16.80;96695.00;;;;4967662;28;20207;-69
2024/03/06 12:49:18;;;;;;;34.40;31.40;;;;;16.70;96686.00;;;;4956054;28;20216;-67
2024/03/06 12:52:08;;;;;;;41.97;38.93;;;;;17.00;96685.00;;;;4965320;28;20212;-68
2024/03/06 12:54:58;;;;;;;49.33;45.87;;;;;17.00;96648.00;;;;4967752;28;20600;-68
2024/03/06 12:57:47;;;;;;;64.87;60.33;;;;;17.60;96662.00;;;;4967431;28;20207;-68
2024/03/06 13:00:36;;;;;;;62.17;58.43;;;;;17.70;96674.00;;;;4966560;28;20207;-68
2024/03/06 13:03:25;;;;;;;87.73;80.73;;;;;17.90;96677.00;;;;4966928;28;20592;-68
2024/03/06 13:06:16;;;;;;;79.87;75.53;;;;;18.30;96671.00;;;;4968246;28;20208;-69
2024/03/06 13:09:06;;;;;;;95.40;90.23;;;;;18.90;96635.00;;;;4966062;28;20215;-69
2024/03/06 13:11:55;;;;;;;158.60;148.97;;;;;20.10;96636.00;;;;4965092;28;20203;-68
2024/03/06 13:14:45;;;;;;;203.07;189.00;;;;;20.20;96633.00;;;;4967031;28;20226;-68
2024/03/06 13:17:34;;;;;;;255.03;237.07;;;;;20.30;96650.00;;;;4967644;28;20230;-68
2024/03/06 13:20:23;;;;;;;296.57;273.10;;;;;20.50;96662.00;;;;4967136;28;20203;-67
2024/03/06 13:23:14;;;;;;;284.77;264.20;;;;;18.90;96645.00;;;;4967442;28;20271;-67
2024/03/06 13:26:03;;;;;;;283.43;264.53;;;;;17.20;96632.00;;;;4968104;28;20211;-68
2024/03/06 13:28:52;;;;;;;266.70;249.00;;;;;18.30;96652.00;;;;4965931;28;20779;-68
2024/03/06 13:31:41;;;;;;;267.00;249.87;;;;;18.90;96657.00;;;;4968438;28;20199;-69
2024/03/06 13:34:31;;;;;;;242.03;225.33;;;;;18.70;96662.00;;;;4966168;28;20226;-69
2024/03/06 13:37:22;;;;;;;230.20;214.93;;;;;18.90;96658.00;;;;4965286;28;20266;-69
2024/03/06 13:40:14;;;;;;;219.50;205.27;;;;;18.80;96650.00;;;;4964976;28;20230;-68
2024/03/06 13:43:03;;;;;;;213.27;198.63;;;;;18.70;96652.00;;;;4962394;28;20726;-68
2024/03/06 13:45:52;;;;;;;214.97;201.37;;;;;18.10;96655.00;;;;4966107;28;20229;-68
2024/03/06 13:48:41;;;;;;;213.90;200.23;;;;;17.90;96655.00;;;;4967472;28;20390;-68
2024/03/06 13:51:30;;;;;;;182.67;170.00;;;;;18.30;96654.00;;;;4965251;28;20215;-69
2024/03/06 13:54:20;;;;;;;180.10;167.70;;;;;17.70;96644.00;;;;4965253;28;20235;-70
2024/03/06 13:57:10;;;;;;;186.63;174.03;;;;;17.70;96645.00;;;;4967256;28;20207;-70
2024/03/06 14:00:00;;;;;;;162.07;151.23;;;;;17.40;96635.00;;;;4964069;28;20296;-70
2024/03/06 14:02:49;;;;;;;171.57;160.53;;;;;17.90;96637.00;;;;4966701;28;20215;-70
2024/03/06 14:05:39;;;;;;;157.63;146.60;;;;;18.00;96627.00;;;;4965650;28;20258;-69